createdAt,value
2022-12-01T00:04:38.039Z,-1.28
2022-12-01T00:09:59.828Z,-1.17
2022-12-01T00:15:02.736Z,-1.04
2022-12-01T00:20:06.952Z,-1.06
2022-12-01T00:25:11.474Z,-0.92
2022-12-01T00:30:14.906Z,-0.91
2022-12-01T00:35:18.419Z,-1.26
2022-12-01T00:40:22.777Z,-0.96
2022-12-01T00:45:25.902Z,-0.81
2022-12-01T00:50:28.821Z,-0.87
2022-12-01T00:55:33.079Z,-1.27
2022-12-01T01:00:38.673Z,-1.38
2022-12-01T01:05:43.456Z,-1.62
2022-12-01T01:10:49.108Z,-1.59
2022-12-01T01:15:59.798Z,-1.45
2022-12-01T01:21:05.824Z,-1.34
2022-12-01T01:26:13.270Z,-1.27
2022-12-01T01:31:20.453Z,-1.99
2022-12-01T01:36:24.336Z,-1.85
2022-12-01T01:41:28.893Z,-1.66
2022-12-01T01:46:33.809Z,-1.67
2022-12-01T01:51:42.184Z,-1.71
2022-12-01T01:56:49.100Z,-1.66
2022-12-01T02:01:58.376Z,-1.68
2022-12-01T02:07:01.803Z,-1.50
2022-12-01T02:12:22.071Z,-1.64
2022-12-01T02:17:41.383Z,-1.38
2022-12-01T02:22:56.871Z,-1.60
2022-12-01T02:28:23.280Z,-1.44
2022-12-01T02:33:36.691Z,-1.88
2022-12-01T02:38:44.462Z,-2.08
2022-12-01T02:43:56.521Z,-2.54
2022-12-01T02:49:05.775Z,-2.29
2022-12-01T02:54:09.909Z,-2.53
2022-12-01T02:59:15.194Z,-2.17
2022-12-01T03:04:40.093Z,-1.98
2022-12-01T03:09:52.990Z,-2.01
2022-12-01T03:15:04.348Z,-1.84
2022-12-01T03:20:15.985Z,-1.76
2022-12-01T03:25:20.985Z,-1.78
2022-12-01T03:30:24.992Z,-1.56
2022-12-01T03:35:35.957Z,-1.53
2022-12-01T03:40:40.415Z,-1.49
2022-12-01T03:45:55.754Z,-1.54
2022-12-01T03:51:15.054Z,-2.03
2022-12-01T03:56:21.875Z,-2.08
2022-12-01T04:01:26.518Z,-1.86
2022-12-01T04:06:30.907Z,-2.32
2022-12-01T04:11:51.079Z,-2.28
2022-12-01T04:16:54.119Z,-2.21
2022-12-01T04:21:58.433Z,-2.43
2022-12-01T04:27:01.285Z,-2.11
2022-12-01T04:32:04.334Z,-1.86
2022-12-01T04:37:09.980Z,-1.71
2022-12-01T04:42:12.961Z,-1.61
2022-12-01T04:47:15.940Z,-1.58
2022-12-01T04:52:20.211Z,-1.86
2022-12-01T04:57:23.089Z,-1.69
2022-12-01T05:02:26.009Z,-1.52
2022-12-01T05:07:30.479Z,-1.67
2022-12-01T05:12:33.974Z,-1.74
2022-12-01T05:17:37.333Z,-2.40
2022-12-01T05:23:04.254Z,-1.97
2022-12-01T05:28:04.877Z,-2.11
2022-12-01T05:33:07.852Z,-1.96
2022-12-01T05:38:12.284Z,-1.65
2022-12-01T05:43:15.216Z,-1.65
2022-12-01T05:48:18.359Z,-1.50
2022-12-01T05:53:22.936Z,-1.11
2022-12-01T05:58:25.866Z,-1.27
2022-12-01T06:03:28.878Z,-1.72
2022-12-01T06:08:33.265Z,-1.40
2022-12-01T06:13:36.239Z,-1.43
2022-12-01T06:18:40.697Z,-1.79
2022-12-01T06:23:44.949Z,-1.72
2022-12-01T06:28:47.852Z,-1.99
2022-12-01T06:33:50.804Z,-1.99
2022-12-01T06:38:55.134Z,-1.95
2022-12-01T06:43:58.215Z,-1.92
2022-12-01T06:49:01.183Z,-1.87
2022-12-01T06:54:05.958Z,-2.04
2022-12-01T06:59:09.000Z,-1.79
2022-12-01T07:04:12.158Z,-1.86
2022-12-01T07:09:16.440Z,-1.68
2022-12-01T07:14:23.726Z,-1.49
2022-12-01T07:19:26.918Z,-1.51
2022-12-01T07:24:31.890Z,-1.65
2022-12-01T07:29:34.897Z,-2.09
2022-12-01T07:34:37.783Z,-1.98
2022-12-01T07:39:42.056Z,-1.88
2022-12-01T07:44:45.034Z,-1.79
2022-12-01T07:49:48.327Z,-2.17
2022-12-01T07:54:52.854Z,-1.97
2022-12-01T07:59:55.785Z,-1.61
2022-12-01T08:04:58.665Z,-1.48
2022-12-01T08:45:37.988Z,-1.75
2022-12-01T09:09:16.589Z,-1.69
2022-12-01T09:15:32.797Z,-1.73
2022-12-01T09:30:54.454Z,-2.11
2022-12-01T09:35:59.329Z,-2.31
2022-12-01T09:41:05.494Z,-2.01
2022-12-01T09:46:17.187Z,-1.81
2022-12-01T09:51:22.486Z,-1.56
2022-12-01T09:56:27.474Z,-1.45
2022-12-01T10:01:35.829Z,-1.33
2022-12-01T10:06:41.187Z,-1.19
2022-12-01T10:11:47.103Z,-1.06
2022-12-01T10:17:00.563Z,-0.99
2022-12-01T10:22:23.759Z,-0.93
2022-12-01T10:27:36.846Z,-1.09
2022-12-01T10:32:53.738Z,-0.83
2022-12-01T10:38:07.931Z,-0.79
2022-12-01T10:43:11.845Z,-0.65
2022-12-01T10:48:19.309Z,-0.75
2022-12-01T10:53:29.555Z,-0.80
2022-12-01T10:58:34.849Z,-0.92
2022-12-01T11:03:41.417Z,-1.44
2022-12-01T11:08:47.305Z,-1.16
2022-12-01T11:13:50.396Z,-1.03
2022-12-01T11:19:09.260Z,-0.96
2022-12-01T11:24:29.059Z,-1.25
2022-12-01T11:29:36.942Z,-0.99
2022-12-01T11:34:42.182Z,-1.10
2022-12-01T11:39:48.332Z,-1.07
2022-12-01T11:44:54.437Z,-1.30
2022-12-01T11:50:01.413Z,-1.31
2022-12-01T11:55:22.783Z,-1.21
2022-12-01T12:00:28.898Z,-1.37
2022-12-01T12:06:38.347Z,-1.49
2022-12-01T12:11:40.289Z,-0.99
2022-12-01T12:17:02.869Z,-1.24
2022-12-01T12:22:21.456Z,-0.92
2022-12-01T12:27:34.128Z,-1.15
2022-12-01T12:32:58.445Z,-1.07
2022-12-01T12:38:09.095Z,-0.89
2022-12-01T12:43:30.478Z,-0.86
2022-12-01T12:49:18.560Z,-0.85
2022-12-01T12:54:27.329Z,-0.74
2022-12-01T12:59:35.398Z,-0.79
2022-12-01T13:04:44.150Z,-1.04
2022-12-01T13:09:58.309Z,-1.08
2022-12-01T13:15:15.382Z,-1.17
2022-12-01T13:20:21.861Z,-1.05
2022-12-01T13:25:31.404Z,-1.17
2022-12-01T13:30:34.390Z,-0.86
2022-12-01T13:35:40.076Z,-0.93
2022-12-01T13:40:44.537Z,-0.87
2022-12-01T13:45:49.351Z,-1.00
2022-12-01T13:50:58.079Z,-0.87
2022-12-01T13:56:44.057Z,-0.89
2022-12-01T14:02:07.366Z,-1.33
2022-12-01T14:07:20.524Z,-1.23
2022-12-01T14:12:29.110Z,-1.57
2022-12-01T14:17:36.071Z,-1.44
2022-12-01T14:22:42.007Z,-1.14
2022-12-01T14:27:44.996Z,-1.25
2022-12-01T14:32:49.267Z,-0.98
2022-12-01T14:37:52.231Z,-1.47
2022-12-01T14:43:16.598Z,-1.16
2022-12-01T14:48:26.553Z,-1.23
2022-12-01T14:53:33.585Z,-1.31
2022-12-01T14:58:36.486Z,-1.31
2022-12-01T15:03:43.367Z,-1.34
2022-12-01T15:09:04.244Z,-1.40
2022-12-01T15:14:23.930Z,-1.44
2022-12-01T15:19:37.527Z,-1.62
2022-12-01T15:24:42.562Z,-1.33
2022-12-01T15:29:47.021Z,-1.23
2022-12-01T15:34:54.808Z,-1.29
2022-12-01T15:45:25.215Z,-1.90
2022-12-01T15:50:33.419Z,-1.99
2022-12-01T15:55:39.537Z,-1.92
2022-12-01T16:00:42.507Z,-1.77
2022-12-01T16:05:46.983Z,-1.66
2022-12-01T16:11:11.284Z,-1.48
2022-12-01T16:16:38.109Z,-1.42
2022-12-01T16:21:47.698Z,-1.52
2022-12-01T16:26:52.871Z,-1.56
2022-12-01T16:32:19.159Z,-1.68
2022-12-01T16:37:23.369Z,-1.76
2022-12-01T16:42:26.349Z,-1.60
2022-12-01T16:47:33.159Z,-1.63
2022-12-01T16:52:45.597Z,-1.80
2022-12-01T16:57:49.002Z,-1.72
2022-12-01T17:02:52.700Z,-1.98
2022-12-01T17:07:57.192Z,-1.61
2022-12-01T17:13:00.197Z,-1.48
2022-12-01T17:18:03.088Z,-1.43
2022-12-01T17:23:07.505Z,-1.65
2022-12-01T17:28:10.451Z,-1.91
2022-12-01T17:33:13.682Z,-1.63
2022-12-01T17:38:17.956Z,-1.46
2022-12-01T17:43:20.919Z,-1.35
2022-12-01T17:48:23.933Z,-1.73
2022-12-01T17:53:29.198Z,-1.68
2022-12-01T17:58:32.635Z,-1.51
2022-12-01T18:03:35.544Z,-1.66
2022-12-01T18:08:40.833Z,-1.49
2022-12-01T18:13:46.460Z,-1.31
2022-12-01T18:18:49.975Z,-1.00
2022-12-01T18:23:55.684Z,-1.45
2022-12-01T18:29:00.829Z,-1.86
2022-12-01T18:34:06.826Z,-1.55
2022-12-01T18:39:12.611Z,-1.29
2022-12-01T18:44:15.598Z,-1.45
2022-12-01T18:49:18.701Z,-1.35
2022-12-01T18:54:23.078Z,-1.28
2022-12-01T18:59:26.284Z,-1.43
2022-12-01T19:04:29.425Z,-1.32
2022-12-01T19:09:33.708Z,-1.39
2022-12-01T19:14:36.856Z,-1.44
2022-12-01T19:19:39.864Z,-1.48
2022-12-01T19:24:49.884Z,-1.32
2022-12-01T19:29:53.973Z,-1.15
2022-12-01T19:34:57.241Z,-1.00
2022-12-01T19:40:01.754Z,-1.39
2022-12-01T19:45:05.638Z,-1.36
2022-12-01T19:50:09.989Z,-1.29
2022-12-01T19:55:14.246Z,-1.27
2022-12-01T20:00:17.850Z,-1.53
2022-12-01T20:05:20.715Z,-1.24
2022-12-01T20:10:25.025Z,-1.15
2022-12-01T20:15:27.947Z,-1.16
2022-12-01T20:20:30.858Z,-0.93
2022-12-01T20:25:35.708Z,-0.91
2022-12-01T20:30:41.166Z,-1.05
2022-12-01T20:35:44.242Z,-1.30
2022-12-01T20:40:51.033Z,-1.04
2022-12-01T20:45:54.074Z,-0.97
2022-12-01T20:50:57.452Z,-1.39
2022-12-01T20:56:04.830Z,-1.39
2022-12-01T21:01:09.710Z,-1.33
2022-12-01T21:06:14.602Z,-1.14
2022-12-01T21:11:43.533Z,-1.43
2022-12-01T21:16:49.361Z,-1.36
2022-12-01T21:21:52.407Z,-1.21
2022-12-01T21:27:00.459Z,-1.57
2022-12-01T21:32:13.553Z,-1.48
2022-12-01T21:37:22.025Z,-1.15
2022-12-01T21:42:29.251Z,-1.13
2022-12-01T21:47:32.177Z,-0.99
2022-12-01T21:52:41.050Z,-1.32
2022-12-01T21:57:47.659Z,-1.61
2022-12-01T22:02:52.620Z,-1.24
2022-12-01T22:08:00.798Z,-1.08
2022-12-01T22:13:10.399Z,-1.28
2022-12-01T22:18:22.207Z,-1.17
2022-12-01T22:23:32.982Z,-1.04
2022-12-01T22:28:37.411Z,-1.17
2022-12-01T22:33:40.356Z,-1.72
2022-12-01T22:38:44.194Z,-1.51
2022-12-01T22:43:49.733Z,-1.34
2022-12-01T22:48:54.999Z,-1.17
2022-12-01T22:54:21.472Z,-0.91
2022-12-01T22:59:30.675Z,-0.87
2022-12-01T23:04:35.528Z,-0.77
2022-12-01T23:09:41.484Z,-0.97
2022-12-01T23:14:48.661Z,-1.20
2022-12-01T23:19:53.900Z,-1.26
2022-12-01T23:24:57.163Z,-0.92
2022-12-01T23:30:01.587Z,-0.84
2022-12-01T23:35:05.410Z,-1.15
2022-12-01T23:40:19.568Z,-1.06
2022-12-01T23:45:27.029Z,-1.55
2022-12-01T23:50:31.576Z,-1.49
2022-12-01T23:55:35.487Z,-1.60
